Detalii statie BONGA [00001D00]

Toti senzorii

Date Temperatura solului [C]Precipitatii [mm]Voltaj baterie [mV]Leaf Wetness [Min]HC Air temperature [C]HC Relative humidity [%]Punctul de roua [C]
medieminmaxsumaultimatimpmedieminmaxmediemediemin
2019-08-15 20:00:00 19.4 19.1 19.5 0 7000
2019-08-15 21:00:00 19 18.8 19.2 0 6992
2019-08-15 22:00:00 18.6 18.5 18.8 0 6982
2019-08-15 23:00:00 18.3 18.1 18.5 0 6972
2019-08-16 00:00:00 18.1 18 18.2 0 6962
2019-08-16 01:00:00 17.7 17.5 18 0 6942
2019-08-16 02:00:00 17.2 17.1 17.5 0 6922
2019-08-16 03:00:00 17.1 17 17.2 0 6904
2019-08-16 04:00:00 16.9 16.9 17.1 0 6894
2019-08-16 05:00:00 16.8 16.7 17.1 0 6894
2019-08-16 06:00:00 16.8 16.7 17 0 6922
2019-08-16 07:00:00 17.1 16.8 17.4 0 7000
2019-08-16 08:00:00 17.6 17.3 18 0 7080
2019-08-16 09:00:00 18.1 17.9 18.3 0 7108
2019-08-16 10:00:00 18.9 18.4 19.5 0 7128
2019-08-16 11:00:00 20 19.5 20.6 0 7138
2019-08-16 12:00:00 20.9 20.6 21.4 0 7138
2019-08-16 13:00:00 21.6 21.3 22 0 7332
2019-08-16 14:00:00 22.2 22 22.4 0 7332
2019-08-16 15:00:00 22.4 22.3 22.7 0 7332
2019-08-16 16:00:00 22.8 22.7 23.1 0 7342
2019-08-16 17:00:00 22.5 22 23 0 7342
2019-08-16 18:00:00 21.7 21.5 22 0 7332
2019-08-16 19:00:00 21 20.6 21.4 0 7332
2019-08-16 20:00:00 20 19.8 20.6 0 6982
2019-08-16 21:00:00 19.2 18.9 19.6 0 6972
2019-08-16 22:00:00 18.5 18.4 18.9 0 6962
2019-08-16 23:00:00 18 17.8 18.3 0 6952
2019-08-17 00:00:00 17.5 17.4 17.8 0 6942
2019-08-17 01:00:00 17 16.7 17.3 0 6922
2019-08-17 02:00:00 16.5 16.3 16.8 0 6922
2019-08-17 03:00:00 16.2 16.1 16.3 0 6914
2019-08-17 04:00:00 15.8 15.7 16.1 0 6884
2019-08-17 05:00:00 15.5 15.4 15.7 0 6884
2019-08-17 06:00:00 15.4 15.2 15.5 0 6914
2019-08-17 07:00:00 15.6 15.5 15.9 0 7010
2019-08-17 08:00:00 16.3 15.9 16.9 0 7148
2019-08-17 09:00:00 17.1 16.8 17.6 0 7158
2019-08-17 10:00:00 18.2 17.7 19 0 7148
2019-08-17 11:00:00 19.6 19.1 20.5 0 7148
2019-08-17 12:00:00 21 20.6 21.4 0 7332
2019-08-17 13:00:00 21.8 21.4 22.2 0 7332
2019-08-17 14:00:00 22.3 22.2 22.5 0 7332
2019-08-17 15:00:00 22.4 22.2 22.6 0 7332
2019-08-17 16:00:00 22.3 22.3 22.5 0 7332
2019-08-17 17:00:00 22.1 21.9 22.4 0 7332
2019-08-17 18:00:00 21.4 21.1 21.9 0 7332
2019-08-17 19:00:00 20.9 20.6 21.3 0 7332